Surface/Precipitation History
01/23/2017 12:13  to  1/24/2017 12:13
Change End Date:
Date/Time
(MST)
Sf
Temp Chem Water Layer Surface Precipitation
Sfc Pvt Sub Frz Factor Pct Dpth DpthThk IcePct Cond Salin FI Type Intens Accum Rate
01/24/2017 12:08 Ice Warning 16.0F - 27F 32F 15 1% - - 99% 1 mhos 143 - None None - -
01/24/2017 11:58 Ice Warning 15.8F - 27F 32F 15 1% - - 99% 1 mhos 141 - None None - -
01/24/2017 11:58 Ice Warning 15.8F - 27F 32F 15 1% - - 99% 1 mhos 141 - None None - -
01/24/2017 11:48 Ice Warning 15.4F - 27F 32F 20 1% - - 99% 1 mhos 139 - None None - -
01/24/2017 11:43 Ice Warning 15.4F - 27F 32F 15 1% - - 99% 1 mhos 139 - None None - -
01/24/2017 11:38 Ice Warning 15.3F - 27F 32F 20 1% - - 99% 1 mhos 138 - None None - -
01/24/2017 11:28 Ice Warning 15.3F - 27F 32F 20 1% - - 99% 1 mhos 136 - None None - -
01/24/2017 11:28 Ice Warning 15.3F - 27F 32F 20 1% - - 99% 1 mhos 136 - None None - -
01/24/2017 11:18 Ice Warning 15.1F - 27F 32F 20 1% - - 99% 1 mhos 134 - None None - -
01/24/2017 11:13 Ice Warning 14.9F - 27F 32F 20 1% - - 99% 1 mhos 133 - None None - -
01/24/2017 11:08 Ice Warning 14.9F - 27F 32F 25 1% - - 99% 1 mhos 132 - None None - -
01/24/2017 10:58 Ice Warning 14.5F - 27F 32F 20 0% - - 99% 1 mhos 130 - None None - -
01/24/2017 10:58 Ice Warning 14.5F - 27F 32F 20 0% - - 99% 1 mhos 130 - None None - -
01/24/2017 10:48 Ice Warning 14.2F - 27F 32F 20 0% - - 99% 1 mhos 127 - None None - -
01/24/2017 10:43 Ice Warning 14.2F - 27F 32F 20 0% - - 99% 1 mhos 126 - None None - -
Date/Time
(MST)
Sf
Temp Chem Water Layer Surface Precipitation
Sfc Pvt Sub Frz Factor Pct Dpth DpthThk IcePct Cond Salin FI Type Intens Accum Rate
01/24/2017 10:38 Ice Warning 14.2F - 27F 32F 15 0% - - 99% 1 mhos 126 - None None - -
01/24/2017 10:28 Ice Warning 13.8F - 27F 32F 15 0% - - 99% 1 mhos 123 - None None - -
01/24/2017 10:28 Ice Warning 13.8F - 27F 32F 15 0% - - 99% 1 mhos 123 - None None - -
01/24/2017 10:18 Ice Warning 13.6F - 27F 32F 15 0% - - 99% 1 mhos 122 - None None - -
01/24/2017 10:13 Ice Warning 13.8F - 27F 32F 15 0% - - 99% 1 mhos 122 - None None - -
01/24/2017 10:08 Ice Warning 13.8F - 27F 32F 15 0% - - 99% 1 mhos 121 - None None - -
01/24/2017 09:58 Ice Warning 13.3F - 27F 32F 20 0% - - 99% 1 mhos 121 - None None - -
01/24/2017 09:58 Ice Warning 13.3F - 27F 32F 20 0% - - 99% 1 mhos 121 - None None - -
01/24/2017 09:48 Ice Warning 13.5F - 27F 32F 15 0% - - 99% 1 mhos 121 - None None - -
01/24/2017 09:43 Ice Warning 13.3F - 27F 32F 15 0% - - 99% 1 mhos 121 - None None - -
01/24/2017 09:38 Ice Warning 13.3F - 27F 32F 15 0% - - 99% 1 mhos 122 - None None - -
01/24/2017 09:28 Ice Warning 13.3F - 27F 32F 15 0% - - 99% 1 mhos 121 - None None - -
01/24/2017 09:28 Ice Warning 13.3F - 27F 32F 15 0% - - 99% 1 mhos 121 - None None - -
01/24/2017 09:17 Ice Warning 13.3F - 27F 32F 15 0% - - 99% 1 mhos 121 - None None - -
01/24/2017 09:13 Ice Warning 13.3F - 27F 32F 15 0% - - 99% 1 mhos 122 - None None - -
Date/Time
(MST)
Sf
Temp Chem Water Layer Surface Precipitation
Sfc Pvt Sub Frz Factor Pct Dpth DpthThk IcePct Cond Salin FI Type Intens Accum Rate
01/24/2017 09:07 Ice Warning 13.3F - 27F 32F 15 0% - - 99% 1 mhos 122 - None None - -
01/24/2017 08:58 Ice Warning 13.3F - 27F 32F 15 0% - - 99% 1 mhos 123 - None None - -
01/24/2017 08:57 Ice Warning 13.3F - 27F 32F 15 0% - - 99% 1 mhos 123 - None None - -
01/24/2017 08:47 Ice Warning 13.1F - 27F 32F 20 0% - - 99% 1 mhos 123 - None None - -
01/24/2017 08:43 Ice Warning 13.1F - 27F 32F 20 0% - - 99% 1 mhos 123 - None None - -
01/24/2017 08:37 Ice Warning 13.1F - 27F 32F 15 0% - - 99% 1 mhos 123 - None None - -
01/24/2017 08:28 Ice Warning 13.1F - 27F 32F 20 0% - - 99% 1 mhos 123 - None None - -
01/24/2017 08:27 Ice Warning 13.1F - 27F 32F 20 0% - - 99% 1 mhos 123 - None None - -
01/24/2017 08:17 Ice Warning 13.3F - 27F 32F 20 0% - - 99% 1 mhos 123 - None None - -
01/24/2017 08:13 Ice Warning 13.3F - 27F 32F 20 0% - - 99% 1 mhos 124 - Yes - - -
01/24/2017 08:07 Ice Warning 13.5F - 27F 32F 20 0% - - 99% 1 mhos 124 - None None - -
01/24/2017 07:58 Ice Warning 13.3F - 27F 32F 20 0% - - 99% 1 mhos 126 - None None - -
01/24/2017 07:57 Ice Warning 13.3F - 27F 32F 20 0% - - 99% 1 mhos 126 - None None - -
01/24/2017 07:47 Ice Warning 13.6F - 27F 32F 25 0% - - 99% 1 mhos 127 - None None - -
01/24/2017 07:43 Ice Warning 13.8F - 27F 32F 20 0% - - 99% 1 mhos 128 - None None - -
Date/Time
(MST)
Sf
Temp Chem Water Layer Surface Precipitation
Sfc Pvt Sub Frz Factor Pct Dpth DpthThk IcePct Cond Salin FI Type Intens Accum Rate
01/24/2017 07:37 Ice Warning 14.0F - 27F 32F 25 0% - - 99% 1 mhos 128 - None None - -
01/24/2017 07:28 Ice Warning 14.0F - 27F 32F 25 0% - - 99% 1 mhos 129 - None None - -
01/24/2017 07:27 Ice Warning 14.0F - 27F 32F 25 0% - - 99% 1 mhos 129 - None None - -
01/24/2017 07:17 Ice Warning 14.4F - 27F 32F 25 1% - - 99% 1 mhos 131 - None None - -
01/24/2017 07:13 Ice Warning 14.2F - 27F 32F 30 1% - - 99% 1 mhos 131 - None None - -
01/24/2017 07:07 Ice Warning 14.4F - 27F 32F 30 1% - - 99% 1 mhos 132 - None None - -
01/24/2017 06:58 Ice Warning 14.7F - 27F 32F 25 1% - - 99% 1 mhos 133 - None None - -
01/24/2017 06:57 Ice Warning 14.7F - 27F 32F 25 1% - - 99% 1 mhos 133 - None None - -
01/24/2017 06:47 Ice Warning 15.1F - 27F 32F 25 1% - - 99% 1 mhos 137 - None None - -
01/24/2017 06:43 Ice Warning 15.3F - 27F 32F 30 1% - - 99% 1 mhos 136 - None None - -
01/24/2017 06:37 Ice Warning 15.4F - 27F 32F 30 1% - - 99% 1 mhos 137 - None None - -
01/24/2017 06:28 Ice Warning 15.4F - 27F 32F 50 1% - - 99% 1 mhos 139 - None None - -
01/24/2017 06:27 Ice Warning 15.4F - 27F 32F 50 1% - - 99% 1 mhos 139 - None None - -
01/24/2017 06:17 Ice Warning 15.8F - 27F 32F 35 1% - - 99% 1 mhos 141 - None None - -
01/24/2017 06:13 Ice Warning 16.0F - 27F 32F 35 1% - - 99% 1 mhos 143 - None None - -
Date/Time
(MST)
Sf
Temp Chem Water Layer Surface Precipitation
Sfc Pvt Sub Frz Factor Pct Dpth DpthThk IcePct Cond Salin FI Type Intens Accum Rate
01/24/2017 06:07 Ice Warning 16.0F - 27F 32F 40 1% - - 99% 1 mhos 144 - None None - -
01/24/2017 05:58 Ice Warning 16.3F - 27F 32F 30 1% - - 99% 1 mhos 146 - None None - -
01/24/2017 05:57 Ice Warning 16.3F - 27F 32F 35 1% - - 99% 1 mhos 146 - None None - -
01/24/2017 05:47 Ice Warning 16.9F - 27F 32F 35 1% - - 99% 1 mhos 149 - None None - -
01/24/2017 05:43 Ice Warning 16.9F - 27F 32F 35 1% - - 99% 1 mhos 149 - None None - -
01/24/2017 05:37 Ice Warning 17.1F - 27F 32F 35 1% - - 99% 1 mhos 153 - None None - -
01/24/2017 05:28 Ice Warning 17.6F - 27F 32F 35 1% - - 99% 1 mhos 156 - None None - -
01/24/2017 05:27 Ice Warning 17.8F - 27F 32F 35 1% - - 99% 1 mhos 158 - None None - -
01/24/2017 05:16 Ice Warning 18.5F - 27F 32F 40 1% - - 99% 1 mhos 165 - None None - -
01/24/2017 05:13 Ice Warning 18.7F - 27F 32F 35 1% - - 99% 1 mhos 167 - None None - -
01/24/2017 05:06 Ice Warning 19.0F - 27F 32F 35 1% - - 99% 1 mhos 171 - None None - -
01/24/2017 04:58 Ice Warning 19.4F - 27F 32F 35 1% - - 99% 1 mhos 174 - None None - -
01/24/2017 04:56 Ice Warning 19.4F - 27F 32F 35 1% - - 99% 1 mhos 176 - None None - -
01/24/2017 04:46 Ice Warning 19.8F - 27F 32F 35 1% - - 99% 1 mhos 182 - None None - -
01/24/2017 04:43 Ice Warning 19.9F - 27F 32F 30 1% - - 99% 1 mhos 183 - None None - -
Date/Time
(MST)
Sf
Temp Chem Water Layer Surface Precipitation
Sfc Pvt Sub Frz Factor Pct Dpth DpthThk IcePct Cond Salin FI Type Intens Accum Rate
01/24/2017 04:36 Ice Warning 19.9F - 27F 32F 35 1% - - 99% 1 mhos 186 - None None - -
01/24/2017 04:28 Ice Warning 20.1F - 27F 32F 55 1% - - 98% 1 mhos 185 - None None - -
01/24/2017 04:26 Ice Warning 20.1F - 27F 32F 70 1% - - 98% 1 mhos 185 - None None - -
01/24/2017 04:16 Ice Warning 20.1F - 27F 32F 40 1% - - 98% 1 mhos 188 - None None - -
01/24/2017 04:13 Ice Warning 20.1F - 27F 32F 35 1% - - 98% 1 mhos 188 - None None - -
01/24/2017 04:06 Ice Warning 20.1F - 27F 32F 35 1% - - 98% 1 mhos 188 - None None - -
01/24/2017 03:58 Ice Warning 20.1F - 27F 32F 45 1% - - 98% 1 mhos 189 - None None - -
01/24/2017 03:56 Ice Warning 20.1F - 27F 32F 65 1% - - 98% 1 mhos 189 - None None - -
01/24/2017 03:46 Ice Warning 20.1F - 28F 32F 40 1% - - 98% 1 mhos 190 - None None - -
01/24/2017 03:43 Ice Warning 20.1F - 27F 32F 45 1% - - 98% 1 mhos 188 - None None - -
01/24/2017 03:36 Ice Warning 20.1F - 27F 32F 40 1% - - 98% 1 mhos 189 - None None - -
01/24/2017 03:28 Ice Warning 20.1F - 27F 32F 45 1% - - 98% 1 mhos 189 - None None - -
01/24/2017 03:26 Ice Warning 20.1F - 27F 32F 40 1% - - 98% 1 mhos 188 - None None - -
01/24/2017 03:16 Ice Warning 19.9F - 27F 32F 45 1% - - 99% 1 mhos 184 - None None - -
01/24/2017 03:13 Ice Warning 20.1F - 27F 32F 40 1% - - 98% 1 mhos 186 - None None - -
Date/Time
(MST)
Sf
Temp Chem Water Layer Surface Precipitation
Sfc Pvt Sub Frz Factor Pct Dpth DpthThk IcePct Cond Salin FI Type Intens Accum Rate
01/24/2017 03:06 Ice Warning 19.9F - 27F 32F 45 1% - - 98% 1 mhos 188 - None None - -
01/24/2017 02:58 Ice Warning 19.9F - 27F 32F 40 1% - - 98% 1 mhos 187 - None None - -
01/24/2017 02:56 Ice Warning 19.9F - 28F 32F 45 1% - - 98% 1 mhos 189 - None None - -
01/24/2017 02:46 Ice Warning 19.9F - 28F 32F 50 1% - - 98% 1 mhos 189 - None None - -
01/24/2017 02:43 Ice Warning 20.1F - 27F 32F 65 1% - - 98% 2 mhos 191 - None None - -
01/24/2017 02:36 Ice Warning 20.3F - 28F 32F 45 1% - - 98% 2 mhos 194 - None None - -
01/24/2017 02:28 Ice Warning 20.5F - 27F 32F 45 1% - - 98% 2 mhos 198 - None None - -
01/24/2017 02:26 Ice Warning 20.5F - 27F 32F 45 1% - - 98% 2 mhos 199 - None None - -
01/24/2017 02:16 Ice Warning 20.7F - 27F 32F 60 1% - - 98% 2 mhos 207 - None None - -
01/24/2017 02:13 Ice Warning 20.8F - 27F 32F 50 1% - - 98% 2 mhos 206 - None None - -
01/24/2017 02:06 Ice Warning 21.0F - 28F 32F 40 1% - - 98% 2 mhos 214 - None None - -
01/24/2017 01:58 Ice Warning 21.4F - 28F 32F 45 1% - - 98% 2 mhos 220 - None None - -
01/24/2017 01:56 Ice Warning 21.4F - 27F 32F 50 1% - - 98% 2 mhos 220 - None None - -
01/24/2017 01:46 Ice Warning 21.7F - 27F 32F 70 1% - - 98% 2 mhos 228 - None None - -
01/24/2017 01:43 Ice Warning 21.9F - 27F 32F 50 1% - - 98% 2 mhos 229 - None None - -
Date/Time
(MST)
Sf
Temp Chem Water Layer Surface Precipitation
Sfc Pvt Sub Frz Factor Pct Dpth DpthThk IcePct Cond Salin FI Type Intens Accum Rate
01/24/2017 01:36 Ice Warning 22.1F - 28F 32F 45 1% - - 98% 2 mhos 233 - None None - -
01/24/2017 01:28 Ice Warning 22.3F - 27F 32F 55 1% - - 98% 2 mhos 238 - None None - -
01/24/2017 01:26 Ice Warning 22.5F - 28F 32F 80 1% - - 98% 2 mhos 240 - None None - -
01/24/2017 01:16 Ice Warning 22.5F - 27F 32F 55 1% - - 97% 2 mhos 246 - None None - -
01/24/2017 01:13 Ice Warning 22.6F - 28F 32F 50 1% - - 97% 2 mhos 246 - None None - -
01/24/2017 01:06 Ice Warning 22.6F - 27F 32F 55 1% - - 97% 2 mhos 252 - None None - -
01/24/2017 00:58 Ice Warning 22.6F - 27F 32F 80 1% - - 97% 2 mhos 255 - None None - -
01/24/2017 00:56 Ice Warning 22.8F - 27F 32F 80 1% - - 97% 2 mhos 254 - None None - -
01/24/2017 00:46 Ice Warning 23.0F - 27F 32F 55 1% - - 97% 2 mhos 261 - None None - -
01/24/2017 00:43 Ice Warning 23.2F - 27F 32F 65 1% - - 97% 2 mhos 261 - None None - -
01/24/2017 00:35 Ice Warning 23.0F - 27F 32F 55 1% - - 97% 2 mhos 264 - None None - -
01/24/2017 00:28 Ice Warning 23.2F - 27F 32F 85 1% - - 97% 2 mhos 268 - None None - -
01/24/2017 00:25 Ice Warning 23.2F - 28F 32F 95 1% - - 97% 2 mhos 268 - None None - -
01/24/2017 00:15 Ice Warning 23.4F - 28F 32F 65 1% - - 97% 2 mhos 273 - None None - -
01/24/2017 00:13 Ice Warning 23.4F - 28F 32F 55 1% - - 97% 2 mhos 273 - None None - -
Date/Time
(MST)
Sf
Temp Chem Water Layer Surface Precipitation
Sfc Pvt Sub Frz Factor Pct Dpth DpthThk IcePct Cond Salin FI Type Intens Accum Rate
01/24/2017 00:05 Ice Warning 23.4F - 27F 32F 95 1% - - 97% 2 mhos 273 - None None - -
01/23/2017 23:58 Ice Warning 23.4F - 27F 32F 75 1% - - 97% 2 mhos 276 - None None - -
01/23/2017 23:55 Ice Warning 23.4F - 27F 32F 65 1% - - 97% 2 mhos 273 - None None - -
01/23/2017 23:45 Ice Warning 23.4F - 27F 32F 75 1% - - 97% 2 mhos 273 - None None - -
01/23/2017 23:43 Ice Warning 23.4F - 27F 32F 60 1% - - 97% 2 mhos 276 - None None - -
01/23/2017 23:35 Ice Warning 23.4F - 27F 32F 95 1% - - 97% 2 mhos 276 - None None - -
01/23/2017 23:28 Ice Warning 23.5F - 27F 32F 75 1% - - 97% 2 mhos 281 - None None - -
01/23/2017 23:25 Ice Warning 23.5F - 28F 32F 80 1% - - 97% 2 mhos 278 - None None - -
01/23/2017 23:15 Ice Warning 23.5F - 27F 32F 95 1% - - 97% 2 mhos 287 - None None - -
01/23/2017 23:13 Ice Warning 23.5F - 27F 32F 95 1% - - 97% 2 mhos 284 - None None - -
01/23/2017 23:05 Ice Warning 23.5F - 27F 32F 95 1% - - 97% 2 mhos 287 - None None - -
01/23/2017 22:58 Ice Warning 23.5F - 27F 32F 90 1% - - 97% 2 mhos 284 - None None - -
01/23/2017 22:55 Ice Warning 23.5F - 27F 32F 85 1% - - 97% 2 mhos 284 - None None - -
01/23/2017 22:45 Ice Warning 23.5F - 27F 32F 95 1% - - 97% 2 mhos 286 - None None - -
01/23/2017 22:43 Ice Warning 23.7F - 27F 32F 95 1% - - 97% 2 mhos 283 - None None - -
Date/Time
(MST)
Sf
Temp Chem Water Layer Surface Precipitation
Sfc Pvt Sub Frz Factor Pct Dpth DpthThk IcePct Cond Salin FI Type Intens Accum Rate
01/23/2017 22:35 Ice Warning 23.7F - 27F 32F 95 1% - - 97% 2 mhos 286 - None None - -
01/23/2017 22:28 Ice Warning 23.7F - 27F 32F 95 1% - - 97% 2 mhos 295 - None None - -
01/23/2017 22:25 Ice Warning 23.7F - 27F 32F 95 1% - - 97% 2 mhos 289 - None None - -
01/23/2017 22:15 Ice Warning 23.7F - 27F 32F 95 1% - - 97% 2 mhos 290 - None None - -
01/23/2017 22:13 Ice Warning 23.7F - 27F 32F 95 1% - - 97% 2 mhos 293 - None None - -
01/23/2017 22:05 Ice Warning 23.7F - 27F 32F 95 1% - - 97% 2 mhos 296 - None None - -
01/23/2017 21:58 Ice Warning 23.7F - 27F 32F 85 1% - - 97% 2 mhos 296 - None None - -
01/23/2017 21:55 Ice Warning 23.9F - 27F 32F 95 1% - - 97% 2 mhos 292 - None None - -
01/23/2017 21:45 Ice Warning 23.9F - 27F 32F 95 1% - - 96% 2 mhos 299 - None None - -
01/23/2017 21:43 Ice Warning 24.1F - 27F 32F 95 1% - - 96% 2 mhos 298 - None None - -
01/23/2017 21:35 Ice Warning 24.1F - 27F 32F 95 1% - - 96% 2 mhos 297 - None None - -
01/23/2017 21:28 Ice Warning 24.1F - 27F 32F 95 1% - - 96% 3 mhos 304 - None None - -
01/23/2017 21:25 Ice Warning 24.1F - 27F 32F 95 1% - - 96% 2 mhos 298 - None None - -
01/23/2017 21:15 Ice Warning 23.9F - 27F 32F 80 1% - - 96% 3 mhos 309 - None None - -
01/23/2017 21:13 Ice Warning 24.3F - 27F 32F 80 1% - - 96% 3 mhos 308 - None None - -
Date/Time
(MST)
Sf
Temp Chem Water Layer Surface Precipitation
Sfc Pvt Sub Frz Factor Pct Dpth DpthThk IcePct Cond Salin FI Type Intens Accum Rate
01/23/2017 21:05 Ice Warning 24.3F - 27F 32F 95 1% - - 96% 3 mhos 311 - None None - -
01/23/2017 20:58 Ice Warning 24.3F - 27F 32F 95 1% - - 96% 3 mhos 311 - None None - -
01/23/2017 20:55 Ice Warning 24.1F - 27F 32F 95 1% - - 96% 3 mhos 304 - None None - -
01/23/2017 20:44 Ice Warning 24.3F - 27F 32F 95 1% - - 96% 3 mhos 315 - None None - -
01/23/2017 20:43 Ice Warning 24.1F - 27F 32F 95 1% - - 96% 3 mhos 311 - None None - -
01/23/2017 20:34 Ice Warning 24.3F - 27F 32F 95 1% - - 96% 3 mhos 313 - None None - -
01/23/2017 20:28 Ice Warning 24.4F - 27F 32F 95 1% - - 96% 3 mhos 311 - None None - -
01/23/2017 20:24 Ice Warning 24.3F - 27F 32F 95 1% - - 96% 3 mhos 319 - None None - -
01/23/2017 20:14 Ice Warning 24.3F - 27F 32F 95 1% - - 96% 3 mhos 308 - None None - -
01/23/2017 20:13 Ice Warning 24.4F - 27F 32F 95 1% - - 96% 3 mhos 307 - None None - -
01/23/2017 20:04 Ice Warning 24.4F - 27F 32F 95 1% - - 96% 3 mhos 307 - None None - -
01/23/2017 19:58 Ice Warning 24.4F - 27F 32F 95 1% - - 96% 3 mhos 302 - None None - -
01/23/2017 19:54 Ice Warning 24.4F - 27F 32F 95 1% - - 96% 3 mhos 307 - None None - -
01/23/2017 19:44 Ice Warning 24.6F - 27F 32F 95 1% - - 96% 3 mhos 312 - None None - -
01/23/2017 19:43 Ice Warning 24.4F - 27F 32F 95 1% - - 96% 3 mhos 310 - None None - -
Date/Time
(MST)
Sf
Temp Chem Water Layer Surface Precipitation
Sfc Pvt Sub Frz Factor Pct Dpth DpthThk IcePct Cond Salin FI Type Intens Accum Rate
01/23/2017 19:34 Ice Warning 24.6F - 27F 32F 95 1% - - 96% 3 mhos 304 - None None - -
01/23/2017 19:28 Ice Warning 24.6F - 27F 32F 95 1% - - 96% 3 mhos 306 - None None - -
01/23/2017 19:24 Ice Warning 24.6F - 27F 32F 95 1% - - 96% 3 mhos 314 - None None - -
01/23/2017 19:14 Ice Warning 24.6F - 27F 32F 95 1% - - 96% 3 mhos 302 - Yes - - -
01/23/2017 19:13 Ice Warning 24.6F - 27F 32F 95 1% - - 96% 3 mhos 306 - Yes - - -
01/23/2017 19:04 Ice Warning 24.6F - 27F 32F 95 1% - - 96% 3 mhos 315 - None None - -
01/23/2017 18:58 Ice Warning 24.8F - 27F 32F 95 1% - - 96% 3 mhos 301 - None None - -
01/23/2017 18:54 Ice Warning 24.8F - 27F 32F 95 1% - - 96% 3 mhos 308 - Yes - - -
01/23/2017 18:44 Ice Warning 24.8F - 27F 32F 95 1% - - 96% 3 mhos 300 - None None - -
01/23/2017 18:43 Ice Warning 25.0F - 27F 32F 95 1% - - 96% 3 mhos 301 - None None - -
01/23/2017 18:34 Ice Warning 25.0F - 27F 32F 95 1% - - 96% 3 mhos 308 - Yes - - -
01/23/2017 18:28 Ice Warning 25.0F - 27F 32F 95 1% - - 96% 3 mhos 310 - None None - -
01/23/2017 18:24 Ice Warning 25.2F - 27F 32F 95 1% - - 96% 3 mhos 305 - None None - -
01/23/2017 18:14 Ice Warning 25.2F - 27F 32F 95 1% - - 96% 3 mhos 304 - None None - -
01/23/2017 18:13 Ice Warning 25.2F - 27F 32F 95 1% - - 96% 2 mhos 293 - Yes - - -
Date/Time
(MST)
Sf
Temp Chem Water Layer Surface Precipitation
Sfc Pvt Sub Frz Factor Pct Dpth DpthThk IcePct Cond Salin FI Type Intens Accum Rate
01/23/2017 18:04 Ice Warning 25.5F - 27F 32F 95 1% - - 96% 2 mhos 286 - Yes - - -
01/23/2017 17:58 Ice Warning 25.3F - 27F 32F 95 1% - - 96% 2 mhos 285 - None None - -
01/23/2017 17:54 Ice Warning 25.5F - 27F 32F 95 1% - - 95% 3 mhos 298 - Yes - - -
01/23/2017 17:44 Ice Warning 25.9F - 27F 32F 95 1% - - 96% 2 mhos 281 - None None - -
01/23/2017 17:43 Ice Warning 26.1F - 27F 32F 95 1% - - 96% 2 mhos 267 - None None - -
01/23/2017 17:34 Ice Warning 26.1F - 27F 32F 95 1% - - 96% 2 mhos 265 - Yes - - -
01/23/2017 17:28 Ice Warning 26.1F - 27F 32F 95 1% - - 96% 2 mhos 271 - Yes - - -
01/23/2017 17:23 Ice Warning 26.1F - 27F 32F 95 1% - - 95% 2 mhos 278 - Yes - - -
01/23/2017 17:13 Ice Warning 26.4F - 27F 32F 95 1% - - 95% 2 mhos 288 - Yes - - -
01/23/2017 17:13 Ice Warning 26.4F - 27F 32F 95 1% - - 95% 2 mhos 288 - Yes - - -
01/23/2017 17:03 Ice Warning 27.0F - 27F 32F 95 1% - - 94% 3 mhos 305 - Yes - - -
01/23/2017 16:58 Ice Warning 26.8F - 27F 32F 95 1% - - 94% 3 mhos 293 - None None - -
01/23/2017 16:53 Ice Warning 27.0F - 27F 32F 95 1% - - 94% 3 mhos 305 - None None - -
01/23/2017 16:43 Ice Warning 27.5F - 27F 32F 95 1% - - 93% 3 mhos 302 - None None - -
01/23/2017 16:43 Ice Warning 27.5F - 27F 32F 95 1% - - 93% 3 mhos 334 - None None - -
Date/Time
(MST)
Sf
Temp Chem Water Layer Surface Precipitation
Sfc Pvt Sub Frz Factor Pct Dpth DpthThk IcePct Cond Salin FI Type Intens Accum Rate
01/23/2017 16:33 Ice Warning 27.7F - 27F 32F 95 1% - - 92% 3 mhos 343 - None None - -
01/23/2017 16:28 Ice Warning 28.2F - 27F 32F 95 1% - - 91% 3 mhos 342 - Yes - - -
01/23/2017 16:23 Ice Warning 28.0F - 27F 32F 95 1% - - 92% 3 mhos 326 - None None - -
01/23/2017 16:13 Ice Warning 28.8F - 27F 32F 95 1% - - 91% 3 mhos 310 - Yes - - -
01/23/2017 16:13 Ice Warning 28.8F - 27F 32F 95 1% - - 91% 3 mhos 310 - Yes - - -
01/23/2017 16:03 Ice Warning 28.6F - 27F 32F 95 1% - - 90% 3 mhos 336 - None None - -
01/23/2017 15:58 Ice Warning 28.8F - 27F 32F 95 1% - - 90% 3 mhos 318 - None None - -
01/23/2017 15:53 Ice Warning 28.9F - 27F 32F 95 1% - - 89% 3 mhos 349 - Yes - - -
01/23/2017 15:43 Ice Warning 29.1F - 27F 32F 95 1% - - 87% 3 mhos 353 - Yes - - -
01/23/2017 15:43 Ice Warning 29.3F - 27F 32F 95 1% - - 87% 3 mhos 352 - Yes - - -
01/23/2017 15:33 Chemically Wet 29.8F - 27F 32F 95 1% - - 83% 3 mhos 378 - None None - -
01/23/2017 15:28 Chemically Wet 30.6F - 27F 32F 95 1% - - 72% 3 mhos 379 - None None - -
01/23/2017 15:23 Chemically Wet 29.7F - 27F 32F 95 1% - - 84% 3 mhos 370 - None None - -
01/23/2017 15:13 Chemically Wet 29.8F - 27F 32F 95 1% - - 84% 3 mhos 359 - Yes - - -
01/23/2017 15:13 Chemically Wet 29.8F - 27F 32F 95 1% - - 84% 3 mhos 359 - Yes - - -
Date/Time
(MST)
Sf
Temp Chem Water Layer Surface Precipitation
Sfc Pvt Sub Frz Factor Pct Dpth DpthThk IcePct Cond Salin FI Type Intens Accum Rate
01/23/2017 15:03 Chemically Wet 30.4F - 27F 32F 95 1% - - 78% 3 mhos 372 - Yes - - -
01/23/2017 14:58 Chemically Wet 30.2F - 27F 32F 95 1% - - 79% 3 mhos 376 - Yes - - -
01/23/2017 14:53 Chemically Wet 30.2F - 27F 32F 95 1% - - 78% 3 mhos 371 - Yes - - -
01/23/2017 14:43 Chemically Wet 30.9F - 27F 32F 95 1% - - 68% 3 mhos 357 - Yes - - -
01/23/2017 14:43 Chemically Wet 30.9F - 27F 32F 95 1% - - 68% 3 mhos 357 - Yes - - -
01/23/2017 14:33 Chemically Wet 31.3F - 27F 32F 95 1% - - 41% 4 mhos 379 - Yes - - -
01/23/2017 14:28 Chemically Wet 31.1F - 27F 32F 95 2% - - 50% 4 mhos 399 - None None - -
01/23/2017 14:23 Chemically Wet 31.5F - 27F 32F 95 2% - - 30% 4 mhos 414 - None None - -
01/23/2017 14:13 Chemically Wet 31.3F - 27F 32F 95 2% - - 37% 4 mhos 402 - None None - -
01/23/2017 14:13 Chemically Wet 31.3F - 27F 32F 95 2% - - 37% 4 mhos 402 - None None - -
01/23/2017 14:03 Chemically Wet 31.5F - 27F 31F 95 2% - - 3% 4 mhos 475 - Yes - - -
01/23/2017 13:58 Chemically Wet 31.3F - 27F 31F 95 2% - - 33% 4 mhos 429 - Yes - - -
01/23/2017 13:53 Chemically Wet 31.3F - 27F 31F 95 2% - - 19% 5 mhos 522 - None None - -
01/23/2017 13:43 Chemically Wet 30.7F - 27F 32F 95 2% - - 67% 4 mhos 414 - None None - -
01/23/2017 13:43 Chemically Wet 30.7F - 27F 32F 95 2% - - 67% 4 mhos 414 - None None - -
Date/Time
(MST)
Sf
Temp Chem Water Layer Surface Precipitation
Sfc Pvt Sub Frz Factor Pct Dpth DpthThk IcePct Cond Salin FI Type Intens Accum Rate
01/23/2017 13:33 Chemically Wet 30.6F - 27F 31F 95 2% - - 70% 4 mhos 424 - Yes - - -
01/23/2017 13:23 Chemically Wet 30.0F - 27F 31F 95 2% - - 77% 4 mhos 450 - None None - -
01/23/2017 13:13 Chemically Wet 29.3F - 27F 31F 95 2% - - 83% 4 mhos 430 - None None - -
01/23/2017 13:12 Chemically Wet 29.5F - 27F 31F 95 2% - - 83% 4 mhos 426 - None None - -
01/23/2017 13:02 Chemically Wet 29.1F - 27F 31F 95 2% - - 85% 4 mhos 437 - Yes - - -
01/23/2017 12:58 Chemically Wet 29.1F - 27F 31F 95 2% - - 85% 4 mhos 435 - Yes - - -
01/23/2017 12:52 Chemically Wet 29.1F - 27F 31F 95 2% - - 85% 4 mhos 444 - None None - -
01/23/2017 12:43 Chemically Wet 29.1F - 27F 31F 95 2% - - 84% 4 mhos 440 - Yes - - -
01/23/2017 12:42 Chemically Wet 29.1F - 27F 31F 95 2% - - 85% 4 mhos 430 - Yes - - -
01/23/2017 12:32 Ice Warning 28.8F - 27F 32F 95 2% - - 87% 4 mhos 417 - Yes - - -
01/23/2017 12:28 Ice Warning 28.2F - 27F 32F 95 2% - - 89% 4 mhos 408 - None None - -
01/23/2017 12:22 Ice Warning 27.9F - 27F 32F 95 2% - - 91% 3 mhos 398 - Yes - - -
01/23/2017 12:13 Ice Warning 27.3F - 27F 32F 95 1% - - 92% 3 mhos 387 - None None - -
Change End Date:

Copyright © 1998-2015 Vaisala, Inc.
All Rights Reserved
Send comments about the data to:
SCAN Web ® is a registered trademark of Vaisala, Inc.
SCAN Web Version 6.0